sensor_id;sensor_type;location;lat;lon;timestamp;temperature;humidity
66271;DHT22;53063;39.614;8.814;2023-05-21T00:01:02;15.00;99.90
66271;DHT22;53063;39.614;8.814;2023-05-21T00:03:30;15.00;99.90
66271;DHT22;53063;39.614;8.814;2023-05-21T00:05:56;15.00;99.90
66271;DHT22;53063;39.614;8.814;2023-05-21T00:08:23;15.00;99.90
66271;DHT22;53063;39.614;8.814;2023-05-21T00:10:49;15.00;99.90
66271;DHT22;53063;39.614;8.814;2023-05-21T00:13:14;15.00;99.90
66271;DHT22;53063;39.614;8.814;2023-05-21T00:15:40;15.00;99.90
66271;DHT22;53063;39.614;8.814;2023-05-21T00:18:06;15.00;99.90
66271;DHT22;53063;39.614;8.814;2023-05-21T00:20:32;15.00;99.90
66271;DHT22;53063;39.614;8.814;2023-05-21T00:22:58;15.00;99.90
66271;DHT22;53063;39.614;8.814;2023-05-21T00:25:27;15.00;99.90
66271;DHT22;53063;39.614;8.814;2023-05-21T00:27:54;15.00;99.90
66271;DHT22;53063;39.614;8.814;2023-05-21T00:30:20;14.90;99.90
66271;DHT22;53063;39.614;8.814;2023-05-21T00:32:46;15.00;99.90
66271;DHT22;53063;39.614;8.814;2023-05-21T00:35:12;15.00;99.90
66271;DHT22;53063;39.614;8.814;2023-05-21T00:37:38;14.90;99.90
66271;DHT22;53063;39.614;8.814;2023-05-21T00:40:05;14.90;99.90
66271;DHT22;53063;39.614;8.814;2023-05-21T00:42:32;14.90;99.90
66271;DHT22;53063;39.614;8.814;2023-05-21T00:44:58;14.90;99.90
66271;DHT22;53063;39.614;8.814;2023-05-21T00:47:25;14.90;99.90
66271;DHT22;53063;39.614;8.814;2023-05-21T00:49:54;14.90;99.90
66271;DHT22;53063;39.614;8.814;2023-05-21T00:52:20;14.90;99.90
66271;DHT22;53063;39.614;8.814;2023-05-21T00:54:51;14.80;99.90
66271;DHT22;53063;39.614;8.814;2023-05-21T00:57:18;14.80;99.90
66271;DHT22;53063;39.614;8.814;2023-05-21T00:59:51;14.90;99.90
66271;DHT22;53063;39.614;8.814;2023-05-21T01:02:17;14.90;99.90
66271;DHT22;53063;39.614;8.814;2023-05-21T01:04:44;14.80;99.90
66271;DHT22;53063;39.614;8.814;2023-05-21T01:07:10;14.80;99.90
66271;DHT22;53063;39.614;8.814;2023-05-21T01:09:38;14.80;99.90
66271;DHT22;53063;39.614;8.814;2023-05-21T01:12:05;14.80;99.90
66271;DHT22;53063;39.614;8.814;2023-05-21T01:14:31;14.80;99.90
66271;DHT22;53063;39.614;8.814;2023-05-21T01:16:59;14.80;99.90
66271;DHT22;53063;39.614;8.814;2023-05-21T01:19:27;14.80;99.90
66271;DHT22;53063;39.614;8.814;2023-05-21T01:22:02;14.80;99.90
66271;DHT22;53063;39.614;8.814;2023-05-21T01:24:29;14.80;99.90
66271;DHT22;53063;39.614;8.814;2023-05-21T01:26:56;14.80;99.90
66271;DHT22;53063;39.614;8.814;2023-05-21T01:29:23;14.90;99.90
66271;DHT22;53063;39.614;8.814;2023-05-21T01:34:27;14.80;99.90
66271;DHT22;53063;39.614;8.814;2023-05-21T01:37:02;14.80;99.90
66271;DHT22;53063;39.614;8.814;2023-05-21T01:39:37;14.80;99.90
66271;DHT22;53063;39.614;8.814;2023-05-21T01:42:06;14.80;99.90
66271;DHT22;53063;39.614;8.814;2023-05-21T01:44:34;14.90;99.90
66271;DHT22;53063;39.614;8.814;2023-05-21T01:47:01;14.90;99.90
66271;DHT22;53063;39.614;8.814;2023-05-21T01:49:28;14.80;99.90
66271;DHT22;53063;39.614;8.814;2023-05-21T01:51:55;14.80;99.90
66271;DHT22;53063;39.614;8.814;2023-05-21T01:54:20;14.80;99.90
66271;DHT22;53063;39.614;8.814;2023-05-21T01:56:48;14.80;99.90
66271;DHT22;53063;39.614;8.814;2023-05-21T01:59:16;14.80;99.90
66271;DHT22;53063;39.614;8.814;2023-05-21T02:01:43;14.70;99.90
66271;DHT22;53063;39.614;8.814;2023-05-21T02:04:08;14.70;99.90
66271;DHT22;53063;39.614;8.814;2023-05-21T02:06:34;14.60;99.90
66271;DHT22;53063;39.614;8.814;2023-05-21T02:09:01;14.70;99.90
66271;DHT22;53063;39.614;8.814;2023-05-21T02:11:28;14.70;99.90
66271;DHT22;53063;39.614;8.814;2023-05-21T02:13:55;14.70;99.90
66271;DHT22;53063;39.614;8.814;2023-05-21T02:16:21;14.70;99.90
66271;DHT22;53063;39.614;8.814;2023-05-21T02:18:47;14.70;99.90
66271;DHT22;53063;39.614;8.814;2023-05-21T02:21:18;14.70;99.90
66271;DHT22;53063;39.614;8.814;2023-05-21T02:23:45;14.70;99.90
66271;DHT22;53063;39.614;8.814;2023-05-21T02:26:11;14.60;99.90
66271;DHT22;53063;39.614;8.814;2023-05-21T02:28:37;14.70;99.90
66271;DHT22;53063;39.614;8.814;2023-05-21T02:31:03;14.60;99.90
66271;DHT22;53063;39.614;8.814;2023-05-21T02:33:29;14.60;99.90
66271;DHT22;53063;39.614;8.814;2023-05-21T02:35:55;14.70;99.90
66271;DHT22;53063;39.614;8.814;2023-05-21T02:38:21;14.80;99.90
66271;DHT22;53063;39.614;8.814;2023-05-21T02:40:49;14.80;99.90
66271;DHT22;53063;39.614;8.814;2023-05-21T02:43:18;14.80;99.90
66271;DHT22;53063;39.614;8.814;2023-05-21T02:45:44;14.80;99.90
66271;DHT22;53063;39.614;8.814;2023-05-21T02:48:10;14.80;99.90
66271;DHT22;53063;39.614;8.814;2023-05-21T02:50:39;14.80;99.90
66271;DHT22;53063;39.614;8.814;2023-05-21T02:53:06;14.80;99.90
66271;DHT22;53063;39.614;8.814;2023-05-21T02:55:33;14.80;99.90
66271;DHT22;53063;39.614;8.814;2023-05-21T02:58:00;14.80;99.90
66271;DHT22;53063;39.614;8.814;2023-05-21T03:00:26;14.80;99.90
66271;DHT22;53063;39.614;8.814;2023-05-21T03:02:52;14.70;99.90
66271;DHT22;53063;39.614;8.814;2023-05-21T03:05:18;14.70;99.90
66271;DHT22;53063;39.614;8.814;2023-05-21T03:07:44;14.70;99.90
66271;DHT22;53063;39.614;8.814;2023-05-21T03:10:10;14.80;99.90
66271;DHT22;53063;39.614;8.814;2023-05-21T03:12:36;14.80;99.90
66271;DHT22;53063;39.614;8.814;2023-05-21T03:15:02;14.80;99.90
66271;DHT22;53063;39.614;8.814;2023-05-21T03:17:29;14.80;99.90
66271;DHT22;53063;39.614;8.814;2023-05-21T03:19:55;14.70;99.90
66271;DHT22;53063;39.614;8.814;2023-05-21T03:22:21;14.50;99.90
66271;DHT22;53063;39.614;8.814;2023-05-21T03:24:47;14.60;99.90
66271;DHT22;53063;39.614;8.814;2023-05-21T03:27:14;14.60;99.90
66271;DHT22;53063;39.614;8.814;2023-05-21T03:29:42;14.60;99.90
66271;DHT22;53063;39.614;8.814;2023-05-21T03:32:09;14.60;99.90
66271;DHT22;53063;39.614;8.814;2023-05-21T03:34:36;14.50;99.90
66271;DHT22;53063;39.614;8.814;2023-05-21T03:37:02;14.50;99.90
66271;DHT22;53063;39.614;8.814;2023-05-21T03:39:29;14.50;99.90
66271;DHT22;53063;39.614;8.814;2023-05-21T03:41:55;14.50;99.90
66271;DHT22;53063;39.614;8.814;2023-05-21T03:44:34;14.50;99.90
66271;DHT22;53063;39.614;8.814;2023-05-21T03:47:14;14.60;99.90
66271;DHT22;53063;39.614;8.814;2023-05-21T03:49:40;14.60;99.90
66271;DHT22;53063;39.614;8.814;2023-05-21T03:52:07;14.70;99.90
66271;DHT22;53063;39.614;8.814;2023-05-21T03:54:33;14.70;99.90
66271;DHT22;53063;39.614;8.814;2023-05-21T03:57:03;14.60;99.90
66271;DHT22;53063;39.614;8.814;2023-05-21T03:59:29;14.60;99.90
66271;DHT22;53063;39.614;8.814;2023-05-21T04:01:55;14.60;99.90
66271;DHT22;53063;39.614;8.814;2023-05-21T04:04:21;14.60;99.90
66271;DHT22;53063;39.614;8.814;2023-05-21T04:06:47;14.60;99.90
66271;DHT22;53063;39.614;8.814;2023-05-21T04:09:14;14.60;99.90
66271;DHT22;53063;39.614;8.814;2023-05-21T04:11:41;14.60;99.90
66271;DHT22;53063;39.614;8.814;2023-05-21T04:14:07;14.70;99.90
66271;DHT22;53063;39.614;8.814;2023-05-21T04:16:33;14.70;99.90
66271;DHT22;53063;39.614;8.814;2023-05-21T04:18:59;14.70;99.90
66271;DHT22;53063;39.614;8.814;2023-05-21T04:21:26;14.70;99.90
66271;DHT22;53063;39.614;8.814;2023-05-21T04:23:52;14.70;99.90
66271;DHT22;53063;39.614;8.814;2023-05-21T04:26:34;14.70;99.90
66271;DHT22;53063;39.614;8.814;2023-05-21T04:29:01;14.80;99.90
66271;DHT22;53063;39.614;8.814;2023-05-21T04:31:31;14.80;99.90
66271;DHT22;53063;39.614;8.814;2023-05-21T04:33:57;14.80;99.90
66271;DHT22;53063;39.614;8.814;2023-05-21T04:36:24;14.80;99.90
66271;DHT22;53063;39.614;8.814;2023-05-21T04:38:50;14.70;99.90
66271;DHT22;53063;39.614;8.814;2023-05-21T04:41:16;14.70;99.90
66271;DHT22;53063;39.614;8.814;2023-05-21T04:43:43;14.80;99.90
66271;DHT22;53063;39.614;8.814;2023-05-21T04:46:11;14.80;99.90
66271;DHT22;53063;39.614;8.814;2023-05-21T04:48:37;14.80;99.90
66271;DHT22;53063;39.614;8.814;2023-05-21T04:51:03;14.90;99.90
66271;DHT22;53063;39.614;8.814;2023-05-21T04:53:30;14.80;99.90
66271;DHT22;53063;39.614;8.814;2023-05-21T04:55:58;14.90;99.90
66271;DHT22;53063;39.614;8.814;2023-05-21T04:58:24;14.90;99.90
66271;DHT22;53063;39.614;8.814;2023-05-21T05:00:50;15.00;99.90
66271;DHT22;53063;39.614;8.814;2023-05-21T05:03:19;15.10;99.90
66271;DHT22;53063;39.614;8.814;2023-05-21T05:05:45;15.10;99.90
66271;DHT22;53063;39.614;8.814;2023-05-21T05:08:11;15.10;99.90
66271;DHT22;53063;39.614;8.814;2023-05-21T05:10:37;15.10;99.90
66271;DHT22;53063;39.614;8.814;2023-05-21T05:13:03;15.20;99.90
66271;DHT22;53063;39.614;8.814;2023-05-21T05:15:29;15.30;99.90
66271;DHT22;53063;39.614;8.814;2023-05-21T05:17:56;15.20;99.90
66271;DHT22;53063;39.614;8.814;2023-05-21T05:20:22;15.30;99.90
66271;DHT22;53063;39.614;8.814;2023-05-21T05:22:49;15.40;99.90
66271;DHT22;53063;39.614;8.814;2023-05-21T05:25:16;15.50;99.90
66271;DHT22;53063;39.614;8.814;2023-05-21T05:27:42;15.60;99.90
66271;DHT22;53063;39.614;8.814;2023-05-21T05:30:08;15.60;99.90
66271;DHT22;53063;39.614;8.814;2023-05-21T05:32:34;15.70;99.90
66271;DHT22;53063;39.614;8.814;2023-05-21T05:35:01;15.80;99.90
66271;DHT22;53063;39.614;8.814;2023-05-21T05:37:27;15.80;99.90
66271;DHT22;53063;39.614;8.814;2023-05-21T05:39:53;15.70;99.90
66271;DHT22;53063;39.614;8.814;2023-05-21T05:42:19;15.70;99.90
66271;DHT22;53063;39.614;8.814;2023-05-21T05:44:46;15.80;99.90
66271;DHT22;53063;39.614;8.814;2023-05-21T05:47:12;15.80;99.90
66271;DHT22;53063;39.614;8.814;2023-05-21T05:49:38;15.90;99.90
66271;DHT22;53063;39.614;8.814;2023-05-21T05:52:05;16.00;99.90
66271;DHT22;53063;39.614;8.814;2023-05-21T05:54:32;16.00;99.90
66271;DHT22;53063;39.614;8.814;2023-05-21T05:56:58;16.10;99.90
66271;DHT22;53063;39.614;8.814;2023-05-21T05:59:25;16.10;99.90
66271;DHT22;53063;39.614;8.814;2023-05-21T06:01:55;16.10;99.90
66271;DHT22;53063;39.614;8.814;2023-05-21T06:04:21;16.20;99.90
66271;DHT22;53063;39.614;8.814;2023-05-21T06:06:47;16.30;99.90
66271;DHT22;53063;39.614;8.814;2023-05-21T06:09:13;16.40;99.90
66271;DHT22;53063;39.614;8.814;2023-05-21T06:11:40;16.40;99.90
66271;DHT22;53063;39.614;8.814;2023-05-21T06:14:06;16.50;99.90
66271;DHT22;53063;39.614;8.814;2023-05-21T06:16:32;16.50;99.90
66271;DHT22;53063;39.614;8.814;2023-05-21T06:18:58;16.40;99.90
66271;DHT22;53063;39.614;8.814;2023-05-21T06:21:24;16.30;99.90
66271;DHT22;53063;39.614;8.814;2023-05-21T06:23:52;16.30;99.90
66271;DHT22;53063;39.614;8.814;2023-05-21T06:26:18;16.30;99.90
66271;DHT22;53063;39.614;8.814;2023-05-21T06:28:46;16.40;99.90
66271;DHT22;53063;39.614;8.814;2023-05-21T06:31:12;16.50;99.90
66271;DHT22;53063;39.614;8.814;2023-05-21T06:33:38;16.50;99.90
66271;DHT22;53063;39.614;8.814;2023-05-21T06:36:05;16.50;99.90
66271;DHT22;53063;39.614;8.814;2023-05-21T06:38:31;16.50;99.90
66271;DHT22;53063;39.614;8.814;2023-05-21T06:41:00;16.50;99.90
66271;DHT22;53063;39.614;8.814;2023-05-21T06:43:45;16.60;99.90
66271;DHT22;53063;39.614;8.814;2023-05-21T06:46:30;16.80;99.90
66271;DHT22;53063;39.614;8.814;2023-05-21T06:48:56;17.20;99.90
66271;DHT22;53063;39.614;8.814;2023-05-21T06:51:22;17.50;99.90
66271;DHT22;53063;39.614;8.814;2023-05-21T06:53:48;17.70;99.90
66271;DHT22;53063;39.614;8.814;2023-05-21T06:56:15;17.90;99.90
66271;DHT22;53063;39.614;8.814;2023-05-21T06:58:42;18.20;99.90
66271;DHT22;53063;39.614;8.814;2023-05-21T07:01:08;18.20;99.90
66271;DHT22;53063;39.614;8.814;2023-05-21T07:03:35;18.40;99.90
66271;DHT22;53063;39.614;8.814;2023-05-21T07:06:01;18.50;99.90
66271;DHT22;53063;39.614;8.814;2023-05-21T07:08:27;18.40;99.90
66271;DHT22;53063;39.614;8.814;2023-05-21T07:10:53;18.40;99.90
66271;DHT22;53063;39.614;8.814;2023-05-21T07:13:21;18.40;99.90
66271;DHT22;53063;39.614;8.814;2023-05-21T07:15:47;18.40;99.90
66271;DHT22;53063;39.614;8.814;2023-05-21T07:18:13;18.50;99.90
66271;DHT22;53063;39.614;8.814;2023-05-21T07:20:39;18.50;99.90
66271;DHT22;53063;39.614;8.814;2023-05-21T07:23:08;18.40;99.90
66271;DHT22;53063;39.614;8.814;2023-05-21T07:25:34;18.40;99.90
66271;DHT22;53063;39.614;8.814;2023-05-21T07:27:59;18.50;99.90
66271;DHT22;53063;39.614;8.814;2023-05-21T07:30:26;18.50;99.90
66271;DHT22;53063;39.614;8.814;2023-05-21T07:32:52;18.60;99.90
66271;DHT22;53063;39.614;8.814;2023-05-21T07:35:18;18.60;99.90
66271;DHT22;53063;39.614;8.814;2023-05-21T07:37:44;18.50;99.90
66271;DHT22;53063;39.614;8.814;2023-05-21T07:40:11;18.40;99.90
66271;DHT22;53063;39.614;8.814;2023-05-21T07:42:38;18.30;99.90
66271;DHT22;53063;39.614;8.814;2023-05-21T07:45:05;18.40;99.90
66271;DHT22;53063;39.614;8.814;2023-05-21T07:47:37;18.30;99.90
66271;DHT22;53063;39.614;8.814;2023-05-21T07:50:04;18.00;99.90
66271;DHT22;53063;39.614;8.814;2023-05-21T07:52:30;18.00;99.90
66271;DHT22;53063;39.614;8.814;2023-05-21T07:54:57;17.90;99.90
66271;DHT22;53063;39.614;8.814;2023-05-21T07:57:24;17.80;99.90
66271;DHT22;53063;39.614;8.814;2023-05-21T07:59:56;17.70;99.90
66271;DHT22;53063;39.614;8.814;2023-05-21T08:02:23;17.70;99.90
66271;DHT22;53063;39.614;8.814;2023-05-21T08:04:50;17.60;99.90
66271;DHT22;53063;39.614;8.814;2023-05-21T08:07:17;17.60;99.90
66271;DHT22;53063;39.614;8.814;2023-05-21T08:09:44;17.50;99.90
66271;DHT22;53063;39.614;8.814;2023-05-21T08:12:11;17.30;99.90
66271;DHT22;53063;39.614;8.814;2023-05-21T08:14:43;17.20;99.90
66271;DHT22;53063;39.614;8.814;2023-05-21T08:17:11;17.20;99.90
66271;DHT22;53063;39.614;8.814;2023-05-21T08:19:37;17.10;99.90
66271;DHT22;53063;39.614;8.814;2023-05-21T08:22:03;17.00;99.90
66271;DHT22;53063;39.614;8.814;2023-05-21T08:24:36;16.90;99.90
66271;DHT22;53063;39.614;8.814;2023-05-21T08:27:02;16.90;99.90
66271;DHT22;53063;39.614;8.814;2023-05-21T08:29:29;16.90;99.90
66271;DHT22;53063;39.614;8.814;2023-05-21T08:31:58;16.80;99.90
66271;DHT22;53063;39.614;8.814;2023-05-21T08:34:24;16.80;99.90
66271;DHT22;53063;39.614;8.814;2023-05-21T08:37:14;16.90;99.90
66271;DHT22;53063;39.614;8.814;2023-05-21T08:39:58;16.90;99.90
66271;DHT22;53063;39.614;8.814;2023-05-21T08:45:01;17.20;99.90
66271;DHT22;53063;39.614;8.814;2023-05-21T08:47:33;17.10;99.90
66271;DHT22;53063;39.614;8.814;2023-05-21T08:50:06;17.20;99.90
66271;DHT22;53063;39.614;8.814;2023-05-21T08:52:34;17.30;99.90
66271;DHT22;53063;39.614;8.814;2023-05-21T08:55:02;17.30;99.90
66271;DHT22;53063;39.614;8.814;2023-05-21T08:57:30;17.30;99.90
66271;DHT22;53063;39.614;8.814;2023-05-21T08:59:57;17.30;99.90
66271;DHT22;53063;39.614;8.814;2023-05-21T09:02:26;17.20;99.90
66271;DHT22;53063;39.614;8.814;2023-05-21T09:04:53;17.40;99.90
66271;DHT22;53063;39.614;8.814;2023-05-21T09:07:24;17.30;99.90
66271;DHT22;53063;39.614;8.814;2023-05-21T09:10:31;17.30;99.90
66271;DHT22;53063;39.614;8.814;2023-05-21T09:12:59;17.50;99.90
66271;DHT22;53063;39.614;8.814;2023-05-21T09:15:25;17.50;99.90
66271;DHT22;53063;39.614;8.814;2023-05-21T09:17:51;17.50;99.90
66271;DHT22;53063;39.614;8.814;2023-05-21T09:20:43;17.60;99.90
66271;DHT22;53063;39.614;8.814;2023-05-21T09:23:10;17.50;99.90
66271;DHT22;53063;39.614;8.814;2023-05-21T09:25:45;17.70;99.90
66271;DHT22;53063;39.614;8.814;2023-05-21T09:28:15;17.90;99.90
66271;DHT22;53063;39.614;8.814;2023-05-21T09:30:50;18.10;99.90
66271;DHT22;53063;39.614;8.814;2023-05-21T09:33:26;18.50;99.90
66271;DHT22;53063;39.614;8.814;2023-05-21T09:35:55;18.70;99.90
66271;DHT22;53063;39.614;8.814;2023-05-21T09:38:24;18.90;99.90
66271;DHT22;53063;39.614;8.814;2023-05-21T09:40:52;18.90;99.90
66271;DHT22;53063;39.614;8.814;2023-05-21T09:43:20;18.90;99.90
66271;DHT22;53063;39.614;8.814;2023-05-21T09:45:51;19.40;99.90
66271;DHT22;53063;39.614;8.814;2023-05-21T09:48:34;19.80;99.90
66271;DHT22;53063;39.614;8.814;2023-05-21T09:51:13;20.20;99.90
66271;DHT22;53063;39.614;8.814;2023-05-21T09:53:57;20.20;99.90
66271;DHT22;53063;39.614;8.814;2023-05-21T09:56:27;20.90;99.90
66271;DHT22;53063;39.614;8.814;2023-05-21T09:59:03;20.80;99.90
66271;DHT22;53063;39.614;8.814;2023-05-21T10:01:33;20.50;99.90
66271;DHT22;53063;39.614;8.814;2023-05-21T10:04:02;20.40;99.90
66271;DHT22;53063;39.614;8.814;2023-05-21T10:06:30;20.30;99.90
66271;DHT22;53063;39.614;8.814;2023-05-21T10:08:59;19.70;99.90
66271;DHT22;53063;39.614;8.814;2023-05-21T10:11:30;19.50;99.90
66271;DHT22;53063;39.614;8.814;2023-05-21T10:14:06;19.40;99.90
66271;DHT22;53063;39.614;8.814;2023-05-21T10:16:34;19.20;99.90
66271;DHT22;53063;39.614;8.814;2023-05-21T10:19:01;19.20;99.90
66271;DHT22;53063;39.614;8.814;2023-05-21T10:21:28;19.00;99.90
66271;DHT22;53063;39.614;8.814;2023-05-21T10:23:56;18.90;99.90
66271;DHT22;53063;39.614;8.814;2023-05-21T10:26:23;18.90;99.90
66271;DHT22;53063;39.614;8.814;2023-05-21T10:28:50;18.90;99.90
66271;DHT22;53063;39.614;8.814;2023-05-21T10:31:17;19.00;99.90
66271;DHT22;53063;39.614;8.814;2023-05-21T10:33:44;19.10;99.90
66271;DHT22;53063;39.614;8.814;2023-05-21T10:36:10;19.20;99.90
66271;DHT22;53063;39.614;8.814;2023-05-21T10:38:37;19.20;99.90
66271;DHT22;53063;39.614;8.814;2023-05-21T10:41:04;19.30;99.90
66271;DHT22;53063;39.614;8.814;2023-05-21T10:51:58;19.50;99.90
66271;DHT22;53063;39.614;8.814;2023-05-21T10:57:38;19.50;99.90
66271;DHT22;53063;39.614;8.814;2023-05-21T11:00:10;19.60;99.90
66271;DHT22;53063;39.614;8.814;2023-05-21T11:02:37;19.40;99.90
66271;DHT22;53063;39.614;8.814;2023-05-21T11:05:03;19.00;99.90
66271;DHT22;53063;39.614;8.814;2023-05-21T11:07:56;19.00;99.90
66271;DHT22;53063;39.614;8.814;2023-05-21T11:10:38;19.00;99.90
66271;DHT22;53063;39.614;8.814;2023-05-21T11:21:13;19.00;99.90
66271;DHT22;53063;39.614;8.814;2023-05-21T11:26:22;18.80;99.90
66271;DHT22;53063;39.614;8.814;2023-05-21T11:31:30;18.60;99.90
66271;DHT22;53063;39.614;8.814;2023-05-21T11:34:19;18.50;99.90
66271;DHT22;53063;39.614;8.814;2023-05-21T11:39:46;18.10;99.90
66271;DHT22;53063;39.614;8.814;2023-05-21T11:42:22;18.10;99.90
66271;DHT22;53063;39.614;8.814;2023-05-21T11:44:52;18.30;99.90
66271;DHT22;53063;39.614;8.814;2023-05-21T11:47:18;18.20;99.90
66271;DHT22;53063;39.614;8.814;2023-05-21T11:49:45;18.20;99.90
66271;DHT22;53063;39.614;8.814;2023-05-21T11:52:12;18.20;99.90
66271;DHT22;53063;39.614;8.814;2023-05-21T11:54:46;18.20;99.90
66271;DHT22;53063;39.614;8.814;2023-05-21T11:57:15;18.10;99.90
66271;DHT22;53063;39.614;8.814;2023-05-21T11:59:44;18.00;99.90
66271;DHT22;53063;39.614;8.814;2023-05-21T12:02:15;17.80;99.90
66271;DHT22;53063;39.614;8.814;2023-05-21T12:04:48;17.90;99.90
66271;DHT22;53063;39.614;8.814;2023-05-21T12:07:17;18.00;99.90
66271;DHT22;53063;39.614;8.814;2023-05-21T12:09:47;18.00;99.90
66271;DHT22;53063;39.614;8.814;2023-05-21T12:12:18;18.10;99.90
66271;DHT22;53063;39.614;8.814;2023-05-21T12:14:49;18.20;99.90
66271;DHT22;53063;39.614;8.814;2023-05-21T12:17:18;18.20;99.90
66271;DHT22;53063;39.614;8.814;2023-05-21T12:19:46;17.90;99.90
66271;DHT22;53063;39.614;8.814;2023-05-21T12:22:12;17.80;99.90
66271;DHT22;53063;39.614;8.814;2023-05-21T12:24:45;17.80;99.90
66271;DHT22;53063;39.614;8.814;2023-05-21T12:27:12;17.80;99.90
66271;DHT22;53063;39.614;8.814;2023-05-21T12:29:43;17.80;99.90
66271;DHT22;53063;39.614;8.814;2023-05-21T12:32:11;17.90;99.90
66271;DHT22;53063;39.614;8.814;2023-05-21T12:34:49;17.90;99.90
66271;DHT22;53063;39.614;8.814;2023-05-21T12:37:20;17.80;99.90
66271;DHT22;53063;39.614;8.814;2023-05-21T12:39:48;17.80;99.90
66271;DHT22;53063;39.614;8.814;2023-05-21T12:42:15;17.90;99.90
66271;DHT22;53063;39.614;8.814;2023-05-21T12:44:48;17.80;99.90
66271;DHT22;53063;39.614;8.814;2023-05-21T12:47:14;17.80;99.90
66271;DHT22;53063;39.614;8.814;2023-05-21T12:49:44;17.80;99.90
66271;DHT22;53063;39.614;8.814;2023-05-21T12:52:17;17.70;99.90
66271;DHT22;53063;39.614;8.814;2023-05-21T12:54:48;17.70;99.90
66271;DHT22;53063;39.614;8.814;2023-05-21T12:57:20;17.60;99.90
66271;DHT22;53063;39.614;8.814;2023-05-21T12:59:54;17.60;99.90
66271;DHT22;53063;39.614;8.814;2023-05-21T13:02:43;17.60;99.90
66271;DHT22;53063;39.614;8.814;2023-05-21T13:05:15;17.50;99.90
66271;DHT22;53063;39.614;8.814;2023-05-21T13:07:42;17.50;99.90
66271;DHT22;53063;39.614;8.814;2023-05-21T13:10:11;17.50;99.90
66271;DHT22;53063;39.614;8.814;2023-05-21T13:12:39;17.40;99.90
66271;DHT22;53063;39.614;8.814;2023-05-21T13:15:07;17.40;99.90
66271;DHT22;53063;39.614;8.814;2023-05-21T13:17:34;17.40;99.90
66271;DHT22;53063;39.614;8.814;2023-05-21T13:22:49;17.20;99.90
66271;DHT22;53063;39.614;8.814;2023-05-21T13:25:21;17.20;99.90
66271;DHT22;53063;39.614;8.814;2023-05-21T13:27:50;17.30;99.90
66271;DHT22;53063;39.614;8.814;2023-05-21T13:30:18;17.20;99.90
66271;DHT22;53063;39.614;8.814;2023-05-21T13:32:44;17.20;99.90
66271;DHT22;53063;39.614;8.814;2023-05-21T13:35:10;17.10;99.90
66271;DHT22;53063;39.614;8.814;2023-05-21T13:37:38;17.20;99.90
66271;DHT22;53063;39.614;8.814;2023-05-21T13:40:06;17.30;99.90
66271;DHT22;53063;39.614;8.814;2023-05-21T13:42:34;17.40;99.90
66271;DHT22;53063;39.614;8.814;2023-05-21T13:45:00;17.50;99.90
66271;DHT22;53063;39.614;8.814;2023-05-21T13:47:26;17.60;99.90
66271;DHT22;53063;39.614;8.814;2023-05-21T13:49:53;17.60;99.90
66271;DHT22;53063;39.614;8.814;2023-05-21T13:52:20;17.60;99.90
66271;DHT22;53063;39.614;8.814;2023-05-21T13:54:47;17.70;99.90
66271;DHT22;53063;39.614;8.814;2023-05-21T13:57:14;17.80;99.90
66271;DHT22;53063;39.614;8.814;2023-05-21T13:59:40;17.80;99.90
66271;DHT22;53063;39.614;8.814;2023-05-21T14:02:07;17.80;99.90
66271;DHT22;53063;39.614;8.814;2023-05-21T14:04:35;17.70;99.90
66271;DHT22;53063;39.614;8.814;2023-05-21T14:07:02;17.80;99.90
66271;DHT22;53063;39.614;8.814;2023-05-21T14:09:32;17.90;99.90
66271;DHT22;53063;39.614;8.814;2023-05-21T14:11:58;17.90;99.90
66271;DHT22;53063;39.614;8.814;2023-05-21T14:14:24;17.90;99.90
66271;DHT22;53063;39.614;8.814;2023-05-21T14:16:51;18.00;99.90
66271;DHT22;53063;39.614;8.814;2023-05-21T14:19:19;18.00;99.90
66271;DHT22;53063;39.614;8.814;2023-05-21T14:21:47;18.00;99.90
66271;DHT22;53063;39.614;8.814;2023-05-21T14:24:13;18.10;99.90
66271;DHT22;53063;39.614;8.814;2023-05-21T14:26:43;18.00;99.90
66271;DHT22;53063;39.614;8.814;2023-05-21T14:29:09;17.90;99.90
66271;DHT22;53063;39.614;8.814;2023-05-21T14:31:35;18.00;99.90
66271;DHT22;53063;39.614;8.814;2023-05-21T14:34:01;18.00;99.90
66271;DHT22;53063;39.614;8.814;2023-05-21T14:36:28;17.80;99.90
66271;DHT22;53063;39.614;8.814;2023-05-21T14:38:54;17.80;99.90
66271;DHT22;53063;39.614;8.814;2023-05-21T14:41:23;18.00;99.90
66271;DHT22;53063;39.614;8.814;2023-05-21T14:43:52;18.00;99.90
66271;DHT22;53063;39.614;8.814;2023-05-21T14:46:18;18.00;99.90
66271;DHT22;53063;39.614;8.814;2023-05-21T14:48:46;18.10;99.90
66271;DHT22;53063;39.614;8.814;2023-05-21T14:51:13;18.20;99.90
66271;DHT22;53063;39.614;8.814;2023-05-21T14:53:40;18.20;99.90
66271;DHT22;53063;39.614;8.814;2023-05-21T14:56:08;18.30;99.90
66271;DHT22;53063;39.614;8.814;2023-05-21T14:58:34;18.40;99.90
66271;DHT22;53063;39.614;8.814;2023-05-21T15:01:02;18.30;99.90
66271;DHT22;53063;39.614;8.814;2023-05-21T15:03:31;18.30;99.90
66271;DHT22;53063;39.614;8.814;2023-05-21T15:06:07;18.30;99.90
66271;DHT22;53063;39.614;8.814;2023-05-21T15:08:37;18.30;99.90
66271;DHT22;53063;39.614;8.814;2023-05-21T15:11:04;18.40;99.90
66271;DHT22;53063;39.614;8.814;2023-05-21T15:13:33;18.50;99.90
66271;DHT22;53063;39.614;8.814;2023-05-21T15:16:00;18.40;99.90
66271;DHT22;53063;39.614;8.814;2023-05-21T15:18:27;18.10;99.90
66271;DHT22;53063;39.614;8.814;2023-05-21T15:20:56;18.30;99.90
66271;DHT22;53063;39.614;8.814;2023-05-21T15:23:24;18.30;99.90
66271;DHT22;53063;39.614;8.814;2023-05-21T15:25:54;18.20;99.90
66271;DHT22;53063;39.614;8.814;2023-05-21T15:28:20;18.40;99.90
66271;DHT22;53063;39.614;8.814;2023-05-21T15:30:50;18.50;99.90
66271;DHT22;53063;39.614;8.814;2023-05-21T15:33:16;18.60;99.90
66271;DHT22;53063;39.614;8.814;2023-05-21T15:35:42;18.50;99.90
66271;DHT22;53063;39.614;8.814;2023-05-21T15:38:11;18.60;99.90
66271;DHT22;53063;39.614;8.814;2023-05-21T15:40:38;18.50;99.90
66271;DHT22;53063;39.614;8.814;2023-05-21T15:43:07;18.50;99.90
66271;DHT22;53063;39.614;8.814;2023-05-21T15:45:35;18.40;99.90
66271;DHT22;53063;39.614;8.814;2023-05-21T15:48:04;18.50;99.90
66271;DHT22;53063;39.614;8.814;2023-05-21T15:50:30;18.60;99.90
66271;DHT22;53063;39.614;8.814;2023-05-21T15:52:57;18.50;99.90
66271;DHT22;53063;39.614;8.814;2023-05-21T15:55:32;18.60;99.90
66271;DHT22;53063;39.614;8.814;2023-05-21T15:58:01;18.60;99.90
66271;DHT22;53063;39.614;8.814;2023-05-21T16:00:27;18.60;99.90
66271;DHT22;53063;39.614;8.814;2023-05-21T16:02:53;18.60;99.90
66271;DHT22;53063;39.614;8.814;2023-05-21T16:05:19;18.60;99.90
66271;DHT22;53063;39.614;8.814;2023-05-21T16:07:46;18.60;99.90
66271;DHT22;53063;39.614;8.814;2023-05-21T16:10:12;18.60;99.90
66271;DHT22;53063;39.614;8.814;2023-05-21T16:12:43;18.60;99.90